sensor_id;sensor_type;location;lat;lon;timestamp;temperature;humidity
66934;DHT22;53846;51.984;5.890;2022-07-29T00:00:40;20.00;55.20
66934;DHT22;53846;51.984;5.890;2022-07-29T00:03:13;20.10;55.30
66934;DHT22;53846;51.984;5.890;2022-07-29T00:05:43;20.00;54.80
66934;DHT22;53846;51.984;5.890;2022-07-29T00:08:12;19.90;54.60
66934;DHT22;53846;51.984;5.890;2022-07-29T00:10:42;20.10;54.90
66934;DHT22;53846;51.984;5.890;2022-07-29T00:13:11;20.20;55.00
66934;DHT22;53846;51.984;5.890;2022-07-29T00:15:40;20.10;54.80
66934;DHT22;53846;51.984;5.890;2022-07-29T00:18:12;20.00;55.20
66934;DHT22;53846;51.984;5.890;2022-07-29T00:20:41;20.10;55.20
66934;DHT22;53846;51.984;5.890;2022-07-29T00:23:10;20.00;55.60
66934;DHT22;53846;51.984;5.890;2022-07-29T00:25:39;20.00;55.10
66934;DHT22;53846;51.984;5.890;2022-07-29T00:28:09;20.00;55.40
66934;DHT22;53846;51.984;5.890;2022-07-29T00:30:38;19.90;55.20
66934;DHT22;53846;51.984;5.890;2022-07-29T00:33:09;20.10;55.50
66934;DHT22;53846;51.984;5.890;2022-07-29T00:35:40;20.00;55.70
66934;DHT22;53846;51.984;5.890;2022-07-29T00:38:10;19.90;55.80
66934;DHT22;53846;51.984;5.890;2022-07-29T00:40:40;19.90;56.00
66934;DHT22;53846;51.984;5.890;2022-07-29T00:43:09;19.90;56.00
66934;DHT22;53846;51.984;5.890;2022-07-29T00:45:39;19.80;55.70
66934;DHT22;53846;51.984;5.890;2022-07-29T00:48:09;19.90;55.90
66934;DHT22;53846;51.984;5.890;2022-07-29T00:50:41;19.60;55.70
66934;DHT22;53846;51.984;5.890;2022-07-29T00:53:12;19.70;55.90
66934;DHT22;53846;51.984;5.890;2022-07-29T00:55:41;19.90;56.00
66934;DHT22;53846;51.984;5.890;2022-07-29T00:58:12;19.60;55.80
66934;DHT22;53846;51.984;5.890;2022-07-29T01:00:41;19.60;56.50
66934;DHT22;53846;51.984;5.890;2022-07-29T01:03:10;19.70;56.60
66934;DHT22;53846;51.984;5.890;2022-07-29T01:05:44;19.40;56.50
66934;DHT22;53846;51.984;5.890;2022-07-29T01:08:15;19.60;56.50
66934;DHT22;53846;51.984;5.890;2022-07-29T01:10:45;19.60;56.50
66934;DHT22;53846;51.984;5.890;2022-07-29T01:13:16;19.70;56.20
66934;DHT22;53846;51.984;5.890;2022-07-29T01:15:49;19.70;57.30
66934;DHT22;53846;51.984;5.890;2022-07-29T01:18:24;19.70;56.80
66934;DHT22;53846;51.984;5.890;2022-07-29T01:21:24;19.50;56.60
66934;DHT22;53846;51.984;5.890;2022-07-29T01:24:14;19.60;56.70
66934;DHT22;53846;51.984;5.890;2022-07-29T01:26:47;19.50;57.10
66934;DHT22;53846;51.984;5.890;2022-07-29T01:29:24;19.90;56.90
66934;DHT22;53846;51.984;5.890;2022-07-29T01:31:58;19.60;56.70
66934;DHT22;53846;51.984;5.890;2022-07-29T01:34:38;19.80;56.80
66934;DHT22;53846;51.984;5.890;2022-07-29T01:37:15;19.50;56.50
66934;DHT22;53846;51.984;5.890;2022-07-29T01:39:49;19.50;56.90
66934;DHT22;53846;51.984;5.890;2022-07-29T01:42:26;19.50;56.90
66934;DHT22;53846;51.984;5.890;2022-07-29T01:45:02;19.70;56.90
66934;DHT22;53846;51.984;5.890;2022-07-29T01:47:35;19.50;57.00
66934;DHT22;53846;51.984;5.890;2022-07-29T01:50:10;19.60;57.10
66934;DHT22;53846;51.984;5.890;2022-07-29T01:52:43;19.80;57.00
66934;DHT22;53846;51.984;5.890;2022-07-29T01:55:15;19.80;57.60
66934;DHT22;53846;51.984;5.890;2022-07-29T01:57:47;19.40;56.90
66934;DHT22;53846;51.984;5.890;2022-07-29T02:00:20;19.50;56.90
66934;DHT22;53846;51.984;5.890;2022-07-29T02:02:51;19.60;56.80
66934;DHT22;53846;51.984;5.890;2022-07-29T02:05:23;19.60;56.90
66934;DHT22;53846;51.984;5.890;2022-07-29T02:07:58;19.90;56.70
66934;DHT22;53846;51.984;5.890;2022-07-29T02:10:29;19.70;56.40
66934;DHT22;53846;51.984;5.890;2022-07-29T02:13:02;19.70;56.20
66934;DHT22;53846;51.984;5.890;2022-07-29T02:15:35;19.70;56.50
66934;DHT22;53846;51.984;5.890;2022-07-29T02:18:08;19.70;56.10
66934;DHT22;53846;51.984;5.890;2022-07-29T02:20:39;19.70;56.10
66934;DHT22;53846;51.984;5.890;2022-07-29T02:23:10;19.80;56.30
66934;DHT22;53846;51.984;5.890;2022-07-29T02:25:42;19.80;56.20
66934;DHT22;53846;51.984;5.890;2022-07-29T02:28:12;19.70;57.00
66934;DHT22;53846;51.984;5.890;2022-07-29T02:30:45;19.80;56.70
66934;DHT22;53846;51.984;5.890;2022-07-29T02:33:16;19.80;56.70
66934;DHT22;53846;51.984;5.890;2022-07-29T02:35:47;19.90;57.10
66934;DHT22;53846;51.984;5.890;2022-07-29T02:38:17;19.70;58.00
66934;DHT22;53846;51.984;5.890;2022-07-29T02:41:01;19.90;57.70
66934;DHT22;53846;51.984;5.890;2022-07-29T02:43:34;19.90;57.70
66934;DHT22;53846;51.984;5.890;2022-07-29T02:46:11;20.00;57.70
66934;DHT22;53846;51.984;5.890;2022-07-29T02:48:46;19.90;57.70
66934;DHT22;53846;51.984;5.890;2022-07-29T02:51:21;20.10;57.60
66934;DHT22;53846;51.984;5.890;2022-07-29T02:53:53;19.90;57.70
66934;DHT22;53846;51.984;5.890;2022-07-29T02:56:25;19.80;57.50
66934;DHT22;53846;51.984;5.890;2022-07-29T02:59:04;19.90;57.70
66934;DHT22;53846;51.984;5.890;2022-07-29T03:01:40;19.80;57.70
66934;DHT22;53846;51.984;5.890;2022-07-29T03:04:11;19.80;57.70
66934;DHT22;53846;51.984;5.890;2022-07-29T03:06:42;19.80;57.60
66934;DHT22;53846;51.984;5.890;2022-07-29T03:09:13;19.80;57.70
66934;DHT22;53846;51.984;5.890;2022-07-29T03:11:44;19.80;57.80
66934;DHT22;53846;51.984;5.890;2022-07-29T03:14:14;19.80;57.90
66934;DHT22;53846;51.984;5.890;2022-07-29T03:16:47;19.60;57.90
66934;DHT22;53846;51.984;5.890;2022-07-29T03:19:17;19.70;58.40
66934;DHT22;53846;51.984;5.890;2022-07-29T03:21:46;19.60;58.80
66934;DHT22;53846;51.984;5.890;2022-07-29T03:24:30;19.50;59.00
66934;DHT22;53846;51.984;5.890;2022-07-29T03:26:59;19.50;59.50
66934;DHT22;53846;51.984;5.890;2022-07-29T03:29:29;19.40;59.80
66934;DHT22;53846;51.984;5.890;2022-07-29T03:32:02;19.40;60.50
66934;DHT22;53846;51.984;5.890;2022-07-29T03:34:31;19.30;60.60
66934;DHT22;53846;51.984;5.890;2022-07-29T03:37:01;19.10;61.50
66934;DHT22;53846;51.984;5.890;2022-07-29T03:39:33;19.00;62.10
66934;DHT22;53846;51.984;5.890;2022-07-29T03:42:05;19.00;62.30
66934;DHT22;53846;51.984;5.890;2022-07-29T03:44:36;18.90;62.70
66934;DHT22;53846;51.984;5.890;2022-07-29T03:47:09;18.80;62.70
66934;DHT22;53846;51.984;5.890;2022-07-29T03:49:40;18.60;63.30
66934;DHT22;53846;51.984;5.890;2022-07-29T03:52:09;18.70;63.80
66934;DHT22;53846;51.984;5.890;2022-07-29T03:54:39;18.90;63.10
66934;DHT22;53846;51.984;5.890;2022-07-29T03:57:10;18.70;63.90
66934;DHT22;53846;51.984;5.890;2022-07-29T03:59:40;18.50;64.20
66934;DHT22;53846;51.984;5.890;2022-07-29T04:02:12;18.70;63.80
66934;DHT22;53846;51.984;5.890;2022-07-29T04:04:42;18.50;64.50
66934;DHT22;53846;51.984;5.890;2022-07-29T04:07:12;18.50;65.70
66934;DHT22;53846;51.984;5.890;2022-07-29T04:09:42;18.40;65.50
66934;DHT22;53846;51.984;5.890;2022-07-29T04:12:11;18.40;65.50
66934;DHT22;53846;51.984;5.890;2022-07-29T04:14:40;18.30;65.80
66934;DHT22;53846;51.984;5.890;2022-07-29T04:17:12;18.20;66.20
66934;DHT22;53846;51.984;5.890;2022-07-29T04:19:41;18.10;66.50
66934;DHT22;53846;51.984;5.890;2022-07-29T04:22:10;18.00;66.90
66934;DHT22;53846;51.984;5.890;2022-07-29T04:24:39;18.10;67.50
66934;DHT22;53846;51.984;5.890;2022-07-29T04:27:08;17.90;67.40
66934;DHT22;53846;51.984;5.890;2022-07-29T04:29:38;17.80;67.70
66934;DHT22;53846;51.984;5.890;2022-07-29T04:32:07;17.80;68.10
66934;DHT22;53846;51.984;5.890;2022-07-29T04:34:38;17.70;68.20
66934;DHT22;53846;51.984;5.890;2022-07-29T04:37:08;17.70;68.60
66934;DHT22;53846;51.984;5.890;2022-07-29T04:39:37;17.70;68.50
66934;DHT22;53846;51.984;5.890;2022-07-29T04:42:06;17.90;68.90
66934;DHT22;53846;51.984;5.890;2022-07-29T04:44:35;17.80;69.20
66934;DHT22;53846;51.984;5.890;2022-07-29T04:47:07;17.70;68.70
66934;DHT22;53846;51.984;5.890;2022-07-29T04:49:40;17.70;68.80
66934;DHT22;53846;51.984;5.890;2022-07-29T04:52:09;17.70;68.90
66934;DHT22;53846;51.984;5.890;2022-07-29T04:54:38;17.80;68.40
66934;DHT22;53846;51.984;5.890;2022-07-29T04:57:07;17.60;68.00
66934;DHT22;53846;51.984;5.890;2022-07-29T04:59:37;17.40;68.50
66934;DHT22;53846;51.984;5.890;2022-07-29T05:02:06;17.50;68.50
66934;DHT22;53846;51.984;5.890;2022-07-29T05:04:35;17.70;68.10
66934;DHT22;53846;51.984;5.890;2022-07-29T05:07:07;17.90;68.50
66934;DHT22;53846;51.984;5.890;2022-07-29T05:09:36;17.60;68.30
66934;DHT22;53846;51.984;5.890;2022-07-29T05:12:06;17.70;69.30
66934;DHT22;53846;51.984;5.890;2022-07-29T05:14:35;17.70;68.20
66934;DHT22;53846;51.984;5.890;2022-07-29T05:17:05;17.70;68.30
66934;DHT22;53846;51.984;5.890;2022-07-29T05:19:34;17.70;68.30
66934;DHT22;53846;51.984;5.890;2022-07-29T05:22:03;17.50;68.00
66934;DHT22;53846;51.984;5.890;2022-07-29T05:24:35;17.60;68.70
66934;DHT22;53846;51.984;5.890;2022-07-29T05:27:04;17.70;68.50
66934;DHT22;53846;51.984;5.890;2022-07-29T05:29:33;17.80;68.50
66934;DHT22;53846;51.984;5.890;2022-07-29T05:32:03;17.50;68.30
66934;DHT22;53846;51.984;5.890;2022-07-29T05:34:32;17.60;68.90
66934;DHT22;53846;51.984;5.890;2022-07-29T05:37:02;17.60;68.80
66934;DHT22;53846;51.984;5.890;2022-07-29T05:39:34;17.60;68.90
66934;DHT22;53846;51.984;5.890;2022-07-29T05:42:04;17.80;68.70
66934;DHT22;53846;51.984;5.890;2022-07-29T05:44:37;17.60;68.30
66934;DHT22;53846;51.984;5.890;2022-07-29T05:47:06;17.80;68.40
66934;DHT22;53846;51.984;5.890;2022-07-29T05:49:35;17.50;68.00
66934;DHT22;53846;51.984;5.890;2022-07-29T05:52:05;17.80;68.50
66934;DHT22;53846;51.984;5.890;2022-07-29T05:54:37;17.80;68.00
66934;DHT22;53846;51.984;5.890;2022-07-29T05:57:06;17.90;67.70
66934;DHT22;53846;51.984;5.890;2022-07-29T05:59:37;18.00;69.10
66934;DHT22;53846;51.984;5.890;2022-07-29T06:02:07;17.70;68.80
66934;DHT22;53846;51.984;5.890;2022-07-29T06:04:36;17.80;67.90
66934;DHT22;53846;51.984;5.890;2022-07-29T06:07:05;18.00;68.00
66934;DHT22;53846;51.984;5.890;2022-07-29T06:09:37;18.30;68.20
66934;DHT22;53846;51.984;5.890;2022-07-29T06:12:06;18.10;68.60
66934;DHT22;53846;51.984;5.890;2022-07-29T06:14:36;18.10;68.60
66934;DHT22;53846;51.984;5.890;2022-07-29T06:17:05;18.20;68.00
66934;DHT22;53846;51.984;5.890;2022-07-29T06:19:34;18.10;67.80
66934;DHT22;53846;51.984;5.890;2022-07-29T06:22:04;18.40;67.80
66934;DHT22;53846;51.984;5.890;2022-07-29T06:24:33;18.20;67.30
66934;DHT22;53846;51.984;5.890;2022-07-29T06:27:06;18.20;67.20
66934;DHT22;53846;51.984;5.890;2022-07-29T06:29:35;18.00;67.00
66934;DHT22;53846;51.984;5.890;2022-07-29T06:32:05;18.00;66.90
66934;DHT22;53846;51.984;5.890;2022-07-29T06:34:35;18.10;66.90
66934;DHT22;53846;51.984;5.890;2022-07-29T06:37:08;18.30;66.70
66934;DHT22;53846;51.984;5.890;2022-07-29T06:39:37;18.60;66.60
66934;DHT22;53846;51.984;5.890;2022-07-29T06:42:09;18.70;66.60
66934;DHT22;53846;51.984;5.890;2022-07-29T06:44:38;18.70;66.60
66934;DHT22;53846;51.984;5.890;2022-07-29T06:47:08;18.50;66.20
66934;DHT22;53846;51.984;5.890;2022-07-29T06:49:37;18.60;66.00
66934;DHT22;53846;51.984;5.890;2022-07-29T06:52:06;18.80;65.90
66934;DHT22;53846;51.984;5.890;2022-07-29T06:54:35;19.00;66.20
66934;DHT22;53846;51.984;5.890;2022-07-29T06:57:05;18.80;65.90
66934;DHT22;53846;51.984;5.890;2022-07-29T06:59:36;19.00;66.00
66934;DHT22;53846;51.984;5.890;2022-07-29T07:02:06;19.10;65.60
66934;DHT22;53846;51.984;5.890;2022-07-29T07:04:35;19.30;65.80
66934;DHT22;53846;51.984;5.890;2022-07-29T07:07:04;19.20;65.30
66934;DHT22;53846;51.984;5.890;2022-07-29T07:09:33;19.10;65.30
66934;DHT22;53846;51.984;5.890;2022-07-29T07:12:03;19.20;64.60
66934;DHT22;53846;51.984;5.890;2022-07-29T07:14:32;19.30;64.80
66934;DHT22;53846;51.984;5.890;2022-07-29T07:17:04;19.30;64.20
66934;DHT22;53846;51.984;5.890;2022-07-29T07:19:34;19.30;64.00
66934;DHT22;53846;51.984;5.890;2022-07-29T07:22:03;19.50;63.80
66934;DHT22;53846;51.984;5.890;2022-07-29T07:24:32;19.50;63.40
66934;DHT22;53846;51.984;5.890;2022-07-29T07:27:01;19.40;63.30
66934;DHT22;53846;51.984;5.890;2022-07-29T07:29:30;19.60;63.30
66934;DHT22;53846;51.984;5.890;2022-07-29T07:32:00;19.70;62.90
66934;DHT22;53846;51.984;5.890;2022-07-29T07:34:31;19.70;63.10
66934;DHT22;53846;51.984;5.890;2022-07-29T07:37:00;19.70;63.10
66934;DHT22;53846;51.984;5.890;2022-07-29T07:39:30;20.00;62.80
66934;DHT22;53846;51.984;5.890;2022-07-29T07:41:59;19.60;62.50
66934;DHT22;53846;51.984;5.890;2022-07-29T07:44:28;19.80;62.50
66934;DHT22;53846;51.984;5.890;2022-07-29T07:46:57;19.80;62.30
66934;DHT22;53846;51.984;5.890;2022-07-29T07:49:26;19.80;62.00
66934;DHT22;53846;51.984;5.890;2022-07-29T07:51:58;19.90;62.60
66934;DHT22;53846;51.984;5.890;2022-07-29T07:54:27;19.70;62.60
66934;DHT22;53846;51.984;5.890;2022-07-29T07:56:57;20.00;62.50
66934;DHT22;53846;51.984;5.890;2022-07-29T07:59:26;20.10;62.60
66934;DHT22;53846;51.984;5.890;2022-07-29T08:01:55;19.90;62.20
66934;DHT22;53846;51.984;5.890;2022-07-29T08:04:26;20.20;62.20
66934;DHT22;53846;51.984;5.890;2022-07-29T08:06:58;19.80;62.60
66934;DHT22;53846;51.984;5.890;2022-07-29T08:09:28;20.00;62.50
66934;DHT22;53846;51.984;5.890;2022-07-29T08:11:59;20.00;62.50
66934;DHT22;53846;51.984;5.890;2022-07-29T08:14:30;20.20;62.60
66934;DHT22;53846;51.984;5.890;2022-07-29T08:16:59;20.10;62.40
66934;DHT22;53846;51.984;5.890;2022-07-29T08:19:28;20.40;62.60
66934;DHT22;53846;51.984;5.890;2022-07-29T08:22:00;20.20;62.10
66934;DHT22;53846;51.984;5.890;2022-07-29T08:24:29;20.10;61.60
66934;DHT22;53846;51.984;5.890;2022-07-29T08:27:11;20.60;62.00
66934;DHT22;53846;51.984;5.890;2022-07-29T08:29:41;20.30;62.30
66934;DHT22;53846;51.984;5.890;2022-07-29T08:32:10;20.40;62.30
66934;DHT22;53846;51.984;5.890;2022-07-29T08:34:39;20.40;62.50
66934;DHT22;53846;51.984;5.890;2022-07-29T08:37:11;20.20;62.20
66934;DHT22;53846;51.984;5.890;2022-07-29T08:39:40;20.50;62.10
66934;DHT22;53846;51.984;5.890;2022-07-29T08:42:10;20.80;62.40
66934;DHT22;53846;51.984;5.890;2022-07-29T08:44:40;20.60;62.00
66934;DHT22;53846;51.984;5.890;2022-07-29T08:47:09;20.60;62.00
66934;DHT22;53846;51.984;5.890;2022-07-29T08:49:39;20.60;62.10
66934;DHT22;53846;51.984;5.890;2022-07-29T08:52:11;20.60;61.50
66934;DHT22;53846;51.984;5.890;2022-07-29T08:54:43;20.60;61.70
66934;DHT22;53846;51.984;5.890;2022-07-29T08:57:13;20.80;61.80
66934;DHT22;53846;51.984;5.890;2022-07-29T08:59:43;20.80;62.10
66934;DHT22;53846;51.984;5.890;2022-07-29T09:02:19;20.70;61.80
66934;DHT22;53846;51.984;5.890;2022-07-29T09:04:49;20.90;61.50
66934;DHT22;53846;51.984;5.890;2022-07-29T09:07:21;20.90;61.30
66934;DHT22;53846;51.984;5.890;2022-07-29T09:09:50;20.70;60.90
66934;DHT22;53846;51.984;5.890;2022-07-29T09:12:20;21.00;61.00
66934;DHT22;53846;51.984;5.890;2022-07-29T09:14:51;21.00;60.80
66934;DHT22;53846;51.984;5.890;2022-07-29T09:17:39;21.00;60.20
66934;DHT22;53846;51.984;5.890;2022-07-29T09:20:10;21.10;60.10
66934;DHT22;53846;51.984;5.890;2022-07-29T09:22:42;20.90;60.00
66934;DHT22;53846;51.984;5.890;2022-07-29T09:25:15;21.10;60.40
66934;DHT22;53846;51.984;5.890;2022-07-29T09:28:06;21.10;60.60
66934;DHT22;53846;51.984;5.890;2022-07-29T09:30:36;21.30;60.60
66934;DHT22;53846;51.984;5.890;2022-07-29T09:33:08;20.90;60.20
66934;DHT22;53846;51.984;5.890;2022-07-29T09:35:37;21.10;60.30
66934;DHT22;53846;51.984;5.890;2022-07-29T09:38:13;21.30;60.60
66934;DHT22;53846;51.984;5.890;2022-07-29T09:40:56;21.50;60.70
66934;DHT22;53846;51.984;5.890;2022-07-29T09:43:25;21.40;60.60
66934;DHT22;53846;51.984;5.890;2022-07-29T09:45:55;21.50;60.40
66934;DHT22;53846;51.984;5.890;2022-07-29T09:48:25;21.40;61.10
66934;DHT22;53846;51.984;5.890;2022-07-29T09:50:54;21.30;60.50
66934;DHT22;53846;51.984;5.890;2022-07-29T09:53:35;21.70;59.60
66934;DHT22;53846;51.984;5.890;2022-07-29T09:56:06;21.50;59.00
66934;DHT22;53846;51.984;5.890;2022-07-29T09:58:36;21.70;58.90
66934;DHT22;53846;51.984;5.890;2022-07-29T10:01:06;21.80;59.10
66934;DHT22;53846;51.984;5.890;2022-07-29T10:03:50;21.80;58.70
66934;DHT22;53846;51.984;5.890;2022-07-29T10:06:19;21.90;59.30
66934;DHT22;53846;51.984;5.890;2022-07-29T10:08:51;21.90;59.20
66934;DHT22;53846;51.984;5.890;2022-07-29T10:11:21;22.00;58.20
66934;DHT22;53846;51.984;5.890;2022-07-29T10:13:50;22.10;58.60
66934;DHT22;53846;51.984;5.890;2022-07-29T10:16:19;22.00;58.20
66934;DHT22;53846;51.984;5.890;2022-07-29T10:18:48;22.40;58.40
66934;DHT22;53846;51.984;5.890;2022-07-29T10:21:18;22.40;57.80
66934;DHT22;53846;51.984;5.890;2022-07-29T10:23:47;22.20;57.80
66934;DHT22;53846;51.984;5.890;2022-07-29T10:26:19;22.50;58.20
66934;DHT22;53846;51.984;5.890;2022-07-29T10:28:48;22.80;57.90
66934;DHT22;53846;51.984;5.890;2022-07-29T10:31:24;22.80;57.30
66934;DHT22;53846;51.984;5.890;2022-07-29T10:34:03;22.80;57.40
66934;DHT22;53846;51.984;5.890;2022-07-29T10:36:44;23.50;57.10
66934;DHT22;53846;51.984;5.890;2022-07-29T10:39:27;23.40;55.80
66934;DHT22;53846;51.984;5.890;2022-07-29T10:42:13;23.50;55.60
66934;DHT22;53846;51.984;5.890;2022-07-29T10:44:47;23.80;54.80
66934;DHT22;53846;51.984;5.890;2022-07-29T10:47:20;24.00;55.10
66934;DHT22;53846;51.984;5.890;2022-07-29T10:49:56;24.00;55.30
66934;DHT22;53846;51.984;5.890;2022-07-29T10:52:53;24.30;54.00
66934;DHT22;53846;51.984;5.890;2022-07-29T10:55:33;24.30;54.10
66934;DHT22;53846;51.984;5.890;2022-07-29T10:58:16;24.40;51.60
66934;DHT22;53846;51.984;5.890;2022-07-29T11:00:47;24.60;52.00
66934;DHT22;53846;51.984;5.890;2022-07-29T11:03:45;24.70;52.70
66934;DHT22;53846;51.984;5.890;2022-07-29T11:06:16;25.00;50.40
66934;DHT22;53846;51.984;5.890;2022-07-29T11:08:45;25.10;49.60
66934;DHT22;53846;51.984;5.890;2022-07-29T11:11:40;25.50;49.30
66934;DHT22;53846;51.984;5.890;2022-07-29T11:14:09;25.20;48.60
66934;DHT22;53846;51.984;5.890;2022-07-29T11:17:00;25.30;49.00
66934;DHT22;53846;51.984;5.890;2022-07-29T11:19:31;25.60;49.90
66934;DHT22;53846;51.984;5.890;2022-07-29T11:22:00;25.50;49.80
66934;DHT22;53846;51.984;5.890;2022-07-29T11:24:30;25.50;50.00
66934;DHT22;53846;51.984;5.890;2022-07-29T11:27:11;25.80;50.00
66934;DHT22;53846;51.984;5.890;2022-07-29T11:29:49;25.60;49.10
66934;DHT22;53846;51.984;5.890;2022-07-29T11:32:19;26.10;48.50
66934;DHT22;53846;51.984;5.890;2022-07-29T11:34:49;25.90;48.50
66934;DHT22;53846;51.984;5.890;2022-07-29T11:37:38;25.90;47.80
66934;DHT22;53846;51.984;5.890;2022-07-29T11:40:15;25.80;46.90
66934;DHT22;53846;51.984;5.890;2022-07-29T11:42:52;25.90;48.50
66934;DHT22;53846;51.984;5.890;2022-07-29T11:45:25;26.10;47.70
66934;DHT22;53846;51.984;5.890;2022-07-29T11:47:59;26.20;47.10
66934;DHT22;53846;51.984;5.890;2022-07-29T11:50:34;26.40;47.00
66934;DHT22;53846;51.984;5.890;2022-07-29T11:53:10;26.40;46.80
66934;DHT22;53846;51.984;5.890;2022-07-29T11:55:40;26.30;47.00
66934;DHT22;53846;51.984;5.890;2022-07-29T11:58:12;26.60;46.90
66934;DHT22;53846;51.984;5.890;2022-07-29T12:00:41;26.70;46.40
66934;DHT22;53846;51.984;5.890;2022-07-29T12:03:24;26.80;45.50
66934;DHT22;53846;51.984;5.890;2022-07-29T12:05:54;27.00;47.00
66934;DHT22;53846;51.984;5.890;2022-07-29T12:08:23;26.80;46.00
66934;DHT22;53846;51.984;5.890;2022-07-29T12:10:53;27.00;45.80
66934;DHT22;53846;51.984;5.890;2022-07-29T12:13:38;27.20;46.40
66934;DHT22;53846;51.984;5.890;2022-07-29T12:16:07;27.20;45.20
66934;DHT22;53846;51.984;5.890;2022-07-29T12:18:37;27.30;45.60
66934;DHT22;53846;51.984;5.890;2022-07-29T12:21:06;27.30;45.90
66934;DHT22;53846;51.984;5.890;2022-07-29T12:23:35;27.50;45.50
66934;DHT22;53846;51.984;5.890;2022-07-29T12:26:04;27.50;45.10
66934;DHT22;53846;51.984;5.890;2022-07-29T12:28:39;27.60;44.60
66934;DHT22;53846;51.984;5.890;2022-07-29T12:31:13;28.00;45.10
66934;DHT22;53846;51.984;5.890;2022-07-29T12:33:52;27.70;44.10
66934;DHT22;53846;51.984;5.890;2022-07-29T12:36:21;28.00;44.90
66934;DHT22;53846;51.984;5.890;2022-07-29T12:38:50;28.10;44.30
66934;DHT22;53846;51.984;5.890;2022-07-29T12:41:20;28.00;44.20
66934;DHT22;53846;51.984;5.890;2022-07-29T12:43:55;28.20;43.40
66934;DHT22;53846;51.984;5.890;2022-07-29T12:46:25;28.20;44.60
66934;DHT22;53846;51.984;5.890;2022-07-29T12:48:54;28.30;45.30
66934;DHT22;53846;51.984;5.890;2022-07-29T12:51:31;28.40;42.20
66934;DHT22;53846;51.984;5.890;2022-07-29T12:54:05;28.50;41.80
66934;DHT22;53846;51.984;5.890;2022-07-29T12:56:36;28.60;41.30
66934;DHT22;53846;51.984;5.890;2022-07-29T12:59:16;28.70;42.30
66934;DHT22;53846;51.984;5.890;2022-07-29T13:01:46;28.70;41.20
66934;DHT22;53846;51.984;5.890;2022-07-29T13:04:26;28.90;40.80
66934;DHT22;53846;51.984;5.890;2022-07-29T13:07:00;28.70;42.00
66934;DHT22;53846;51.984;5.890;2022-07-29T13:09:38;28.70;42.60
66934;DHT22;53846;51.984;5.890;2022-07-29T13:12:09;28.70;42.40
66934;DHT22;53846;51.984;5.890;2022-07-29T13:14:43;28.80;43.10
66934;DHT22;53846;51.984;5.890;2022-07-29T13:17:13;28.90;43.30
66934;DHT22;53846;51.984;5.890;2022-07-29T13:19:45;29.00;43.90
66934;DHT22;53846;51.984;5.890;2022-07-29T13:22:17;29.10;43.40
66934;DHT22;53846;51.984;5.890;2022-07-29T13:24:48;29.50;42.80
66934;DHT22;53846;51.984;5.890;2022-07-29T13:27:18;29.60;42.90
66934;DHT22;53846;51.984;5.890;2022-07-29T13:29:51;29.70;40.30
66934;DHT22;53846;51.984;5.890;2022-07-29T13:32:22;29.80;40.20
66934;DHT22;53846;51.984;5.890;2022-07-29T13:34:52;29.60;38.60
66934;DHT22;53846;51.984;5.890;2022-07-29T13:37:21;29.70;39.20
66934;DHT22;53846;51.984;5.890;2022-07-29T13:39:52;29.70;39.20
66934;DHT22;53846;51.984;5.890;2022-07-29T13:42:23;29.50;38.40
66934;DHT22;53846;51.984;5.890;2022-07-29T13:45:00;29.50;38.70
66934;DHT22;53846;51.984;5.890;2022-07-29T13:47:29;29.60;39.70
66934;DHT22;53846;51.984;5.890;2022-07-29T13:49:59;29.60;40.10
66934;DHT22;53846;51.984;5.890;2022-07-29T13:52:28;29.60;40.20
66934;DHT22;53846;51.984;5.890;2022-07-29T13:54:58;29.80;40.50
66934;DHT22;53846;51.984;5.890;2022-07-29T13:57:30;29.70;40.60
66934;DHT22;53846;51.984;5.890;2022-07-29T14:00:02;30.00;40.80
66934;DHT22;53846;51.984;5.890;2022-07-29T14:02:34;30.00;40.20
66934;DHT22;53846;51.984;5.890;2022-07-29T14:05:06;30.10;41.10
66934;DHT22;53846;51.984;5.890;2022-07-29T14:07:36;30.30;41.20
66934;DHT22;53846;51.984;5.890;2022-07-29T14:10:06;30.00;41.30
66934;DHT22;53846;51.984;5.890;2022-07-29T14:12:36;30.10;41.50
66934;DHT22;53846;51.984;5.890;2022-07-29T14:15:08;30.20;42.10
66934;DHT22;53846;51.984;5.890;2022-07-29T14:17:37;30.20;41.60
66934;DHT22;53846;51.984;5.890;2022-07-29T14:20:07;30.30;41.00
66934;DHT22;53846;51.984;5.890;2022-07-29T14:22:37;30.30;41.10
66934;DHT22;53846;51.984;5.890;2022-07-29T14:25:10;30.60;41.40
66934;DHT22;53846;51.984;5.890;2022-07-29T14:27:39;30.40;41.40
66934;DHT22;53846;51.984;5.890;2022-07-29T14:30:12;30.40;41.20
66934;DHT22;53846;51.984;5.890;2022-07-29T14:32:41;30.20;40.90
66934;DHT22;53846;51.984;5.890;2022-07-29T14:35:10;30.20;41.00
66934;DHT22;53846;51.984;5.890;2022-07-29T14:37:40;30.60;39.70
66934;DHT22;53846;51.984;5.890;2022-07-29T14:40:10;30.40;40.20
66934;DHT22;53846;51.984;5.890;2022-07-29T14:42:39;30.40;40.20
66934;DHT22;53846;51.984;5.890;2022-07-29T14:45:11;30.80;40.20
66934;DHT22;53846;51.984;5.890;2022-07-29T14:47:43;30.50;38.90
66934;DHT22;53846;51.984;5.890;2022-07-29T14:50:12;30.70;38.90
66934;DHT22;53846;51.984;5.890;2022-07-29T14:52:42;30.50;38.30
66934;DHT22;53846;51.984;5.890;2022-07-29T14:55:12;30.40;38.60
66934;DHT22;53846;51.984;5.890;2022-07-29T14:57:41;30.40;39.10
66934;DHT22;53846;51.984;5.890;2022-07-29T15:00:14;30.20;37.90
66934;DHT22;53846;51.984;5.890;2022-07-29T15:02:43;30.30;38.80
66934;DHT22;53846;51.984;5.890;2022-07-29T15:05:13;30.10;39.30
66934;DHT22;53846;51.984;5.890;2022-07-29T15:07:42;30.00;39.10
66934;DHT22;53846;51.984;5.890;2022-07-29T15:10:11;29.90;39.30
66934;DHT22;53846;51.984;5.890;2022-07-29T15:12:40;29.70;39.60
66934;DHT22;53846;51.984;5.890;2022-07-29T15:15:09;29.90;39.70
66934;DHT22;53846;51.984;5.890;2022-07-29T15:17:41;29.70;38.90
66934;DHT22;53846;51.984;5.890;2022-07-29T15:20:11;29.80;39.50
66934;DHT22;53846;51.984;5.890;2022-07-29T15:22:41;29.60;40.00
66934;DHT22;53846;51.984;5.890;2022-07-29T15:25:11;30.00;40.50
66934;DHT22;53846;51.984;5.890;2022-07-29T15:27:40;29.70;40.50
66934;DHT22;53846;51.984;5.890;2022-07-29T15:30:10;29.60;40.30
66934;DHT22;53846;51.984;5.890;2022-07-29T15:32:44;29.50;40.00
66934;DHT22;53846;51.984;5.890;2022-07-29T15:35:13;29.40;39.80
66934;DHT22;53846;51.984;5.890;2022-07-29T15:37:42;29.40;40.30
66934;DHT22;53846;51.984;5.890;2022-07-29T15:40:11;29.30;40.40
66934;DHT22;53846;51.984;5.890;2022-07-29T15:42:42;29.00;40.40
66934;DHT22;53846;51.984;5.890;2022-07-29T15:45:11;28.80;40.50
66934;DHT22;53846;51.984;5.890;2022-07-29T15:47:43;28.90;40.50
66934;DHT22;53846;51.984;5.890;2022-07-29T15:50:12;28.60;40.90
66934;DHT22;53846;51.984;5.890;2022-07-29T15:52:42;28.60;41.40
66934;DHT22;53846;51.984;5.890;2022-07-29T15:55:12;28.50;42.10
66934;DHT22;53846;51.984;5.890;2022-07-29T15:57:41;28.40;41.80